createdAt,value
2022-11-23T00:03:41.576Z,2.92
2022-11-23T00:08:44.952Z,2.91
2022-11-23T00:13:48.587Z,2.91
2022-11-23T00:18:56.857Z,2.91
2022-11-23T00:24:00.384Z,2.93
2022-11-23T00:29:03.478Z,2.94
2022-11-23T00:34:06.397Z,2.98
2022-11-23T00:39:09.290Z,3.00
2022-11-23T00:44:12.280Z,3.00
2022-11-23T00:49:15.404Z,2.99
2022-11-23T00:54:18.298Z,3.01
2022-11-23T00:59:21.347Z,3.00
2022-11-23T01:04:24.348Z,3.01
2022-11-23T01:09:27.256Z,3.00
2022-11-23T01:14:30.171Z,3.01
2022-11-23T01:19:33.356Z,3.00
2022-11-23T01:24:36.490Z,2.97
2022-11-23T01:29:39.345Z,2.97
2022-11-23T01:34:42.292Z,2.97
2022-11-23T01:39:45.181Z,2.96
2022-11-23T01:44:49.207Z,2.95
2022-11-23T01:49:53.067Z,2.94
2022-11-23T01:54:59.251Z,2.94
2022-11-23T02:00:05.246Z,2.93
2022-11-23T02:05:08.995Z,2.93
2022-11-23T02:10:11.942Z,2.94
2022-11-23T02:15:15.026Z,2.95
2022-11-23T02:20:19.195Z,2.95
2022-11-23T02:25:34.067Z,2.99
2022-11-23T02:30:38.562Z,3.00
2022-11-23T02:35:57.685Z,3.00
2022-11-23T02:41:00.494Z,3.01
2022-11-23T02:46:04.773Z,3.01
2022-11-23T02:51:07.794Z,3.03
2022-11-23T02:56:10.639Z,3.01
2022-11-23T03:01:13.832Z,3.01
2022-11-23T03:06:16.960Z,3.03
2022-11-23T03:11:19.951Z,3.01
2022-11-23T03:16:23.119Z,3.04
2022-11-23T03:21:26.222Z,3.04
2022-11-23T03:26:29.025Z,3.01
2022-11-23T03:31:31.973Z,3.02
2022-11-23T03:36:34.858Z,3.01
2022-11-23T03:41:37.853Z,3.00
2022-11-23T03:46:40.776Z,3.00
2022-11-23T03:51:43.738Z,2.99
2022-11-23T03:56:47.126Z,2.98
2022-11-23T04:01:50.516Z,2.95
2022-11-23T04:06:53.641Z,2.95
2022-11-23T04:11:59.882Z,2.97
2022-11-23T04:17:03.184Z,2.95
2022-11-23T04:22:05.988Z,2.94
2022-11-23T04:27:12.620Z,2.91
2022-11-23T04:32:15.641Z,2.92
2022-11-23T04:37:18.758Z,2.94
2022-11-23T04:42:21.872Z,2.94
2022-11-23T04:47:25.737Z,2.94
2022-11-23T04:52:28.396Z,2.94
2022-11-23T04:57:31.685Z,2.95
2022-11-23T05:02:34.620Z,2.94
2022-11-23T05:07:37.426Z,2.93
2022-11-23T05:12:40.254Z,2.95
2022-11-23T05:17:43.470Z,2.95
2022-11-23T05:22:46.624Z,2.97
2022-11-23T05:27:49.840Z,2.97
2022-11-23T05:32:52.720Z,2.97
2022-11-23T05:37:55.938Z,2.97
2022-11-23T05:43:00.079Z,2.96
2022-11-23T05:48:03.444Z,2.94
2022-11-23T05:53:06.375Z,2.93
2022-11-23T05:58:09.111Z,2.93
2022-11-23T06:03:11.980Z,2.94
2022-11-23T06:08:14.654Z,2.95
2022-11-23T06:13:17.557Z,2.97
2022-11-23T06:18:20.484Z,2.98
2022-11-23T06:23:25.071Z,3.03
2022-11-23T06:28:29.233Z,3.07
2022-11-23T06:33:32.894Z,3.08
2022-11-23T06:38:35.948Z,3.12
2022-11-23T06:43:38.820Z,3.13
2022-11-23T06:48:47.332Z,3.16
2022-11-23T06:53:50.528Z,3.20
2022-11-23T06:58:53.531Z,3.23
2022-11-23T07:03:56.788Z,3.23
2022-11-23T07:08:59.829Z,3.26
2022-11-23T07:14:02.917Z,3.28
2022-11-23T07:19:05.800Z,3.33
2022-11-23T07:24:08.829Z,3.41
2022-11-23T07:29:11.937Z,3.48
2022-11-23T07:34:14.815Z,3.53
2022-11-23T07:39:17.914Z,3.54
2022-11-23T07:44:20.572Z,3.55
2022-11-23T07:49:23.480Z,3.51
2022-11-23T07:54:26.481Z,3.49
2022-11-23T07:59:29.649Z,3.48
2022-11-23T08:04:32.810Z,3.47
2022-11-23T08:09:35.958Z,3.47
2022-11-23T08:14:38.852Z,3.48
2022-11-23T08:19:41.914Z,3.51
2022-11-23T08:24:45.315Z,3.53
2022-11-23T08:29:49.894Z,3.55
2022-11-23T08:34:52.864Z,3.61
2022-11-23T08:39:55.722Z,3.65
2022-11-23T08:45:00.153Z,3.67
2022-11-23T08:50:02.989Z,3.69
2022-11-23T08:55:06.657Z,3.76
2022-11-23T09:00:10.186Z,3.81
2022-11-23T09:05:13.088Z,3.92
2022-11-23T09:10:18.633Z,3.96
2022-11-23T09:15:22.068Z,4.04
2022-11-23T09:20:25.484Z,4.08
2022-11-23T09:25:28.421Z,4.13
2022-11-23T09:30:31.338Z,4.18
2022-11-23T09:35:39.334Z,4.18
2022-11-23T09:40:45.279Z,4.23
2022-11-23T09:45:55.193Z,4.23
2022-11-23T09:51:18.442Z,4.20
2022-11-23T09:56:36.475Z,4.16
2022-11-23T10:01:39.538Z,4.09
2022-11-23T10:06:44.124Z,4.04
2022-11-23T10:12:24.716Z,4.05
2022-11-23T10:17:58.962Z,4.08
2022-11-23T10:23:09.112Z,4.08
2022-11-23T10:28:20.507Z,4.08
2022-11-23T10:33:42.003Z,4.08
2022-11-23T10:38:47.258Z,4.11
2022-11-23T10:44:09.583Z,4.14
2022-11-23T10:49:33.805Z,4.17
2022-11-23T10:54:52.994Z,4.24
2022-11-23T11:00:13.092Z,4.28
2022-11-23T11:06:14.938Z,4.29
2022-11-23T11:11:08.766Z,4.28
2022-11-23T11:16:37.712Z,4.32
2022-11-23T11:21:42.467Z,4.33
2022-11-23T11:27:05.795Z,4.30
2022-11-23T11:33:04.861Z,4.31
2022-11-23T11:38:41.624Z,4.31
2022-11-23T11:43:56.223Z,4.29
2022-11-23T11:49:25.542Z,4.30
2022-11-23T11:54:52.087Z,4.30
2022-11-23T11:59:58.192Z,4.32
2022-11-23T12:05:30.126Z,4.35
2022-11-23T12:10:41.950Z,4.37
2022-11-23T12:16:08.406Z,4.38
2022-11-23T12:21:34.706Z,4.40
2022-11-23T12:27:10.323Z,4.39
2022-11-23T12:32:42.185Z,4.39
2022-11-23T12:38:28.838Z,4.40
2022-11-23T12:43:59.320Z,4.40
2022-11-23T12:49:52.022Z,4.42
2022-11-23T12:55:29.960Z,4.43
2022-11-23T13:00:44.878Z,4.46
2022-11-23T13:06:24.624Z,4.53
2022-11-23T13:12:13.531Z,4.56
2022-11-23T13:18:11.204Z,4.60
2022-11-23T13:23:13.951Z,4.60
2022-11-23T13:28:44.886Z,4.62
2022-11-23T13:33:50.379Z,4.61
2022-11-23T13:51:06.603Z,5.07
2022-11-23T13:56:42.251Z,5.07
2022-11-23T14:02:10.198Z,5.00
2022-11-23T14:07:43.402Z,4.94
2022-11-23T14:13:22.363Z,4.86
2022-11-23T14:18:57.539Z,4.82
2022-11-23T14:24:30.324Z,4.79
2022-11-23T14:29:47.827Z,4.74
2022-11-23T14:35:32.558Z,4.72
2022-11-23T14:41:01.927Z,4.69
2022-11-23T14:46:07.365Z,4.70
2022-11-23T14:51:27.976Z,4.68
2022-11-23T14:56:39.315Z,4.68
2022-11-23T15:01:54.103Z,4.64
2022-11-23T15:07:10.453Z,4.59
2022-11-23T15:12:29.819Z,4.57
2022-11-23T15:17:33.964Z,4.56
2022-11-23T15:22:37.668Z,4.51
2022-11-23T15:27:43.125Z,4.51
2022-11-23T15:33:05.543Z,4.49
2022-11-23T15:38:23.216Z,4.49
2022-11-23T15:43:26.797Z,4.49
2022-11-23T15:48:34.169Z,4.49
2022-11-23T15:53:49.256Z,4.50
2022-11-23T15:58:54.338Z,4.48
2022-11-23T16:04:04.674Z,4.47
2022-11-23T16:09:58.551Z,4.44
2022-11-23T16:15:38.714Z,4.41
2022-11-23T16:21:16.825Z,4.41
2022-11-23T16:26:21.587Z,4.39
2022-11-23T16:31:42.215Z,4.38
2022-11-23T16:36:45.787Z,4.36
2022-11-23T16:41:48.899Z,4.35
2022-11-23T16:46:52.752Z,4.34
2022-11-23T16:51:57.485Z,4.33
2022-11-23T16:57:00.867Z,4.31
2022-11-23T17:02:04.606Z,4.27
2022-11-23T17:07:07.754Z,4.27
2022-11-23T17:12:18.533Z,4.27
2022-11-23T17:17:23.113Z,4.29
2022-11-23T17:22:26.139Z,4.30
2022-11-23T17:27:32.936Z,4.29
2022-11-23T17:32:35.820Z,4.29
2022-11-23T17:37:39.105Z,4.26
2022-11-23T17:42:42.063Z,4.26
2022-11-23T17:47:45.808Z,4.25
2022-11-23T17:52:48.799Z,4.24
2022-11-23T17:57:51.683Z,4.25
2022-11-23T18:02:55.173Z,4.24
2022-11-23T18:07:58.953Z,4.22
2022-11-23T18:13:02.728Z,4.21
2022-11-23T18:18:05.730Z,4.22
2022-11-23T18:23:09.554Z,4.22
2022-11-23T18:28:12.736Z,4.22
2022-11-23T18:33:15.630Z,4.22
2022-11-23T18:38:18.727Z,4.20
2022-11-23T18:43:21.673Z,4.22
2022-11-23T18:48:25.076Z,4.22
2022-11-23T18:53:27.884Z,4.21
2022-11-23T18:58:35.873Z,4.20
2022-11-23T19:03:41.327Z,4.19
2022-11-23T19:08:48.480Z,4.18
2022-11-23T19:13:54.948Z,4.16
2022-11-23T19:19:01.497Z,4.17
2022-11-23T19:24:06.368Z,4.17
2022-11-23T19:29:09.299Z,4.18
2022-11-23T19:34:14.123Z,4.17
2022-11-23T19:39:17.052Z,4.15
2022-11-23T19:44:19.933Z,4.12
2022-11-23T19:49:22.772Z,4.11
2022-11-23T19:54:25.610Z,4.11
2022-11-23T19:59:28.599Z,4.07
2022-11-23T20:04:32.218Z,4.08
2022-11-23T20:09:35.747Z,4.09
2022-11-23T20:14:38.917Z,4.07
2022-11-23T20:19:41.597Z,4.06
2022-11-23T20:24:44.483Z,4.07
2022-11-23T20:29:47.337Z,4.07
2022-11-23T20:34:50.222Z,4.06
2022-11-23T20:39:53.871Z,4.06
2022-11-23T20:44:56.858Z,4.05
2022-11-23T20:50:00.195Z,4.06
2022-11-23T20:55:03.117Z,4.06
2022-11-23T21:00:06.866Z,4.03
2022-11-23T21:05:09.906Z,4.03
2022-11-23T21:10:33.426Z,4.04
2022-11-23T21:15:36.428Z,4.02
2022-11-23T21:20:40.095Z,4.04
2022-11-23T21:25:43.051Z,4.03
2022-11-23T21:30:46.131Z,4.03
2022-11-23T21:35:49.010Z,4.03
2022-11-23T21:40:59.753Z,4.02
2022-11-23T21:46:11.217Z,4.03
2022-11-23T21:51:15.799Z,4.03
2022-11-23T21:56:18.783Z,4.04
2022-11-23T22:01:27.027Z,4.03
2022-11-23T22:06:31.032Z,4.07
2022-11-23T22:11:36.225Z,4.09
2022-11-23T22:16:42.805Z,4.11
2022-11-23T22:21:46.813Z,4.12
2022-11-23T22:26:49.553Z,4.14
2022-11-23T22:31:52.425Z,4.16
2022-11-23T22:36:55.260Z,4.19
2022-11-23T22:41:58.119Z,4.19
2022-11-23T22:47:01.055Z,4.21
2022-11-23T22:52:04.075Z,4.21
2022-11-23T22:57:06.899Z,4.21
2022-11-23T23:02:09.856Z,4.20
2022-11-23T23:07:12.727Z,4.20
2022-11-23T23:12:15.782Z,4.17
2022-11-23T23:17:18.637Z,4.18
2022-11-23T23:22:21.568Z,4.16
2022-11-23T23:27:24.428Z,4.14
2022-11-23T23:32:27.702Z,4.12
2022-11-23T23:37:31.136Z,4.10
2022-11-23T23:42:34.151Z,4.10
2022-11-23T23:47:37.649Z,4.09
2022-11-23T23:52:40.676Z,4.11
2022-11-23T23:57:43.516Z,4.14
